Archival Weather

Fukuoka

Fukuoka, Japan (RJFF)

Report from: Tuesday, August 16, 2022 11:30 AM JST
Current time: Sunday, November 27, 2022 5:33 PM JST

Current weather
Weather history
Weather forecast

Present weatherLight rain showers, light thunderstorm with rain
Temperature30.0°C (86.0°F)
Heat index38.9°C (101.9°F)
Dew point27.0°C (80.6°F)
Winds 12 kts (6.2 m/s, 13.8 mph) South-Southeast (150°)
Wind gusts 25 kts (12.9 m/s, 28.8 mph)
Visibility6.2 mi. (10 km)
Clouds Few clouds 1,000 ft. (305 m)
Few clouds with cumulonimbus 2,500 ft. (762 m)
Scattered clouds 3,500 ft. (1,067 m)
Ceiling: Broken clouds 4,500 ft. (1,372 m)
Altimeter29.74 in.Hg (1007 mB)
Relative humidity84 %
Density altitude2,403 ft. (732 m)
Flight conditions Visual Meteorological Conditions
Raw dataRJFF 160230Z 15012KT 9999 -SHRA FEW010 FEW025CB SCT035 BKN045 30/27 Q1007 TEMPO 18015G25KT 4000 -TSRA BR
An error has occurred. This application may no longer respond until reloaded. Reload 🗙